createdAt,value
2019-04-22T00:01:30.789Z,3.98
2019-04-22T00:04:03.849Z,4.40
2019-04-22T00:06:49.952Z,3.50
2019-04-22T00:09:24.084Z,5.55
2019-04-22T00:12:00.412Z,3.92
2019-04-22T00:14:24.246Z,3.70
2019-04-22T00:17:01.851Z,4.05
2019-04-22T00:19:36.021Z,4.75
2019-04-22T00:22:08.028Z,3.47
2019-04-22T00:24:31.369Z,3.72
2019-04-22T00:27:03.873Z,3.27
2019-04-22T00:29:50.235Z,2.77
2019-04-22T00:32:19.495Z,4.28
2019-04-22T00:34:48.787Z,4.10
2019-04-22T00:37:23.274Z,3.33
2019-04-22T00:39:51.830Z,3.30
2019-04-22T00:42:32.936Z,3.17
2019-04-22T00:45:00.479Z,3.55
2019-04-22T00:55:10.125Z,4.83
2019-04-22T00:57:35.739Z,3.62
2019-04-22T01:00:05.383Z,3.47
2019-04-22T01:02:42.942Z,3.52
2019-04-22T01:05:12.978Z,3.37
2019-04-22T01:07:40.581Z,3.22
2019-04-22T01:10:12.948Z,2.95
2019-04-22T01:12:42.688Z,3.72
2019-04-22T01:15:21.485Z,4.45
2019-04-22T01:17:46.455Z,2.83
2019-04-22T01:20:37.042Z,3.55
2019-04-22T01:22:46.171Z,3.15
2019-04-22T01:25:17.655Z,4.15
2019-04-22T01:27:39.251Z,3.70
2019-04-22T01:30:09.659Z,3.67
2019-04-22T01:32:36.139Z,3.60
2019-04-22T01:35:18.039Z,4.90
2019-04-22T01:37:48.438Z,3.60
2019-04-22T01:40:35.119Z,4.05
2019-04-22T01:43:08.679Z,6.40
2019-04-22T01:45:39.223Z,3.95
2019-04-22T01:48:05.267Z,2.92
2019-04-22T01:50:37.329Z,3.47
2019-04-22T01:58:05.655Z,3.65
2019-04-22T02:00:51.082Z,3.52
2019-04-22T02:03:17.791Z,2.55
2019-04-22T02:05:46.887Z,5.05
2019-04-22T02:08:25.517Z,4.72
2019-04-22T02:10:54.628Z,3.83
2019-04-22T02:13:22.036Z,4.40
2019-04-22T02:15:57.102Z,5.87
2019-04-22T02:18:23.147Z,2.40
2019-04-22T02:20:48.508Z,2.83
2019-04-22T02:23:47.273Z,3.15
2019-04-22T02:26:22.813Z,4.95
2019-04-22T02:46:41.310Z,2.95
2019-04-22T02:51:21.891Z,3.92
2019-04-22T02:54:27.074Z,3.17
2019-04-22T02:59:08.534Z,3.25
2019-04-22T03:01:30.076Z,2.42
2019-04-22T03:06:36.673Z,2.40
2019-04-22T03:09:03.476Z,2.42
2019-04-22T03:11:34.223Z,2.67
2019-04-22T03:19:22.852Z,2.40
2019-04-22T03:26:39.063Z,2.30
2019-04-22T03:29:11.306Z,3.35
2019-04-22T03:42:07.627Z,2.30
2019-04-22T03:44:38.855Z,3.35
2019-04-22T03:49:59.003Z,2.70
2019-04-22T03:57:30.280Z,3.33
2019-04-22T03:59:55.007Z,2.60
2019-04-22T04:02:21.320Z,3.58
2019-04-22T04:04:47.425Z,2.72
2019-04-22T04:07:40.495Z,2.08
2019-04-22T04:09:49.293Z,2.40
2019-04-22T04:14:58.170Z,2.10
2019-04-22T04:17:26.602Z,3.95
2019-04-22T04:20:10.622Z,2.47
2019-04-22T04:22:46.673Z,3.55
2019-04-22T04:25:08.365Z,3.20
2019-04-22T04:30:06.295Z,2.00
2019-04-22T04:35:18.942Z,2.98
2019-04-22T04:45:32.040Z,5.83
2019-04-22T04:50:09.782Z,5.50
2019-04-22T04:52:39.267Z,3.22
2019-04-22T04:58:09.586Z,2.72
2019-04-22T05:10:27.135Z,2.20
2019-04-22T05:17:54.991Z,2.83
2019-04-22T05:20:32.075Z,4.72
2019-04-22T05:22:44.743Z,3.25
2019-04-22T05:25:22.196Z,4.28
2019-04-22T05:35:26.218Z,1.90
2019-04-22T05:37:56.546Z,2.92
2019-04-22T05:42:56.088Z,2.42
2019-04-22T05:45:25.404Z,2.77
2019-04-22T05:47:56.271Z,2.98
2019-04-22T05:50:26.908Z,2.10
2019-04-22T05:53:00.476Z,2.52
2019-04-22T05:55:41.575Z,2.20
2019-04-22T05:58:08.655Z,3.98
2019-04-22T06:01:12.820Z,2.27
2019-04-22T06:03:08.530Z,2.52
2019-04-22T06:06:00.911Z,2.70
2019-04-22T06:08:19.896Z,3.67
2019-04-22T06:10:53.622Z,3.77
2019-04-22T06:13:18.137Z,4.15
2019-04-22T06:15:55.742Z,2.25
2019-04-22T06:18:31.475Z,5.12
2019-04-22T06:21:06.514Z,1.60
2019-04-22T06:23:34.539Z,2.55
2019-04-22T06:26:14.692Z,4.10
2019-04-22T06:28:48.458Z,6.00
2019-04-22T06:31:12.524Z,2.17
2019-04-22T06:33:34.143Z,2.70
2019-04-22T06:36:08.196Z,2.00
2019-04-22T06:41:18.906Z,4.95
2019-04-22T06:43:50.120Z,3.47
2019-04-22T06:46:17.299Z,3.00
2019-04-22T06:48:46.010Z,3.45
2019-04-22T06:51:24.533Z,3.08
2019-04-22T06:53:47.744Z,2.12
2019-04-22T06:56:35.592Z,3.15
2019-04-22T06:58:52.334Z,2.00
2019-04-22T07:06:35.475Z,2.70
2019-04-22T07:09:20.632Z,3.00
2019-04-22T07:11:23.754Z,3.58
2019-04-22T07:14:01.333Z,5.90
2019-04-22T07:19:09.206Z,1.87
2019-04-22T07:21:36.771Z,2.45
2019-04-22T07:24:20.042Z,2.85
2019-04-22T07:26:36.217Z,3.22
2019-04-22T07:29:07.464Z,3.37
2019-04-22T07:31:43.141Z,2.42
2019-04-22T07:34:19.637Z,3.98
2019-04-22T07:39:19.872Z,3.27
2019-04-22T07:41:44.581Z,3.02
2019-04-22T07:44:21.852Z,1.70
2019-04-22T07:49:18.264Z,4.12
2019-04-22T07:51:49.483Z,4.95
2019-04-22T07:54:20.761Z,2.27
2019-04-22T07:57:07.333Z,1.90
2019-04-22T07:59:26.389Z,3.90
2019-04-22T08:01:56.290Z,2.83
2019-04-22T08:04:35.909Z,2.72
2019-04-22T08:07:11.400Z,3.35
2019-04-22T08:09:41.786Z,2.25
2019-04-22T08:11:56.323Z,5.40
2019-04-22T08:14:35.193Z,2.52
2019-04-22T08:17:33.080Z,3.08
2019-04-22T08:19:43.208Z,5.03
2019-04-22T08:22:11.657Z,8.78
2019-04-22T08:24:41.816Z,5.55
2019-04-22T08:27:11.410Z,1.98
2019-04-22T08:29:52.204Z,2.42
2019-04-22T08:32:15.543Z,7.83
2019-04-22T08:34:42.710Z,3.33
2019-04-22T08:37:41.511Z,7.00
2019-04-22T08:39:55.131Z,7.60
2019-04-22T08:42:29.419Z,4.60
2019-04-22T08:45:07.777Z,4.58
2019-04-22T08:47:26.445Z,6.40
2019-04-22T08:52:30.362Z,7.30
2019-04-22T08:54:57.437Z,9.43
2019-04-22T08:57:40.978Z,3.72
2019-04-22T09:00:03.982Z,4.60
2019-04-22T09:02:32.452Z,7.42
2019-04-22T09:05:10.570Z,4.60
2019-04-22T09:07:31.534Z,6.80
2019-04-22T09:10:02.025Z,13.28
2019-04-22T09:15:02.446Z,6.35
2019-04-22T09:17:41.328Z,6.53
2019-04-22T09:20:13.216Z,10.43
2019-04-22T09:22:41.004Z,7.55
2019-04-22T09:25:11.732Z,6.47
2019-04-22T09:27:44.537Z,7.58
2019-04-22T09:30:22.786Z,12.10
2019-04-22T09:32:54.477Z,8.53
2019-04-22T09:35:21.373Z,6.22
2019-04-22T09:42:51.806Z,6.25
2019-04-22T09:45:21.614Z,5.85
2019-04-22T09:48:16.705Z,6.85
2019-04-22T09:50:33.263Z,4.22
2019-04-22T09:53:02.006Z,8.18
2019-04-22T09:55:41.643Z,5.30
2019-04-22T09:57:55.819Z,9.53
2019-04-22T10:00:38.761Z,5.72
2019-04-22T10:03:07.185Z,13.78
2019-04-22T10:05:41.193Z,5.53
2019-04-22T10:08:18.644Z,7.00
2019-04-22T10:10:41.789Z,7.47
2019-04-22T10:13:13.595Z,8.55
2019-04-22T10:15:39.730Z,10.48
2019-04-22T10:18:20.231Z,7.45
2019-04-22T10:20:45.921Z,7.50
2019-04-22T10:23:19.018Z,9.30
2019-04-22T10:25:45.274Z,5.50
2019-04-22T10:28:27.266Z,6.58
2019-04-22T10:31:00.389Z,9.35
2019-04-22T10:33:14.933Z,8.28
2019-04-22T10:35:28.790Z,9.70
2019-04-22T10:37:58.487Z,7.78
2019-04-22T10:40:40.771Z,8.25
2019-04-22T10:43:11.527Z,14.28
2019-04-22T10:45:41.996Z,11.60
2019-04-22T10:48:12.368Z,14.75
2019-04-22T10:50:48.547Z,7.22
2019-04-22T10:53:19.874Z,8.90
2019-04-22T10:55:51.621Z,6.08
2019-04-22T10:58:22.798Z,7.58
2019-04-22T11:00:54.108Z,17.23
2019-04-22T11:03:24.568Z,14.13
2019-04-22T11:05:54.381Z,5.95
2019-04-22T11:08:32.630Z,5.95
2019-04-22T11:11:11.941Z,8.08
2019-04-22T11:13:26.345Z,7.08
2019-04-22T11:15:56.232Z,6.97
2019-04-22T11:18:25.752Z,6.35
2019-04-22T11:20:55.737Z,8.95
2019-04-22T11:23:26.887Z,10.85
2019-04-22T11:25:57.604Z,7.30
2019-04-22T11:28:27.711Z,11.08
2019-04-22T11:30:58.714Z,8.83
2019-04-22T11:33:28.495Z,6.67
2019-04-22T11:35:58.077Z,5.97
2019-04-22T11:38:28.856Z,9.13
2019-04-22T11:41:01.114Z,8.53
2019-04-22T11:43:30.456Z,6.33
2019-04-22T11:46:00.078Z,4.35
2019-04-22T11:48:31.056Z,9.95
2019-04-22T11:51:01.947Z,6.12
2019-04-22T11:53:31.569Z,3.83
2019-04-22T11:56:02.703Z,7.33
2019-04-22T11:58:33.165Z,5.22
2019-04-22T12:01:03.159Z,13.18
2019-04-22T12:03:33.810Z,5.37
2019-04-22T12:06:03.940Z,5.17
2019-04-22T12:08:34.065Z,4.80
2019-04-22T12:11:05.972Z,7.37
2019-04-22T12:13:35.791Z,4.50
2019-04-22T12:16:07.352Z,4.55
2019-04-22T12:18:37.397Z,4.62
2019-04-22T12:21:07.101Z,3.10
2019-04-22T12:23:37.068Z,5.12
2019-04-22T12:26:12.718Z,5.17
2019-04-22T12:28:39.234Z,3.80
2019-04-22T12:31:09.494Z,3.75
2019-04-22T12:33:39.340Z,2.80
2019-04-22T12:36:11.046Z,8.60
2019-04-22T12:38:41.826Z,5.65
2019-04-22T12:41:14.044Z,4.67
2019-04-22T12:43:45.068Z,5.65
2019-04-22T12:46:18.336Z,4.08
2019-04-22T12:48:48.174Z,5.25
2019-04-22T12:51:18.876Z,5.72
2019-04-22T12:53:48.843Z,5.40
2019-04-22T12:56:19.660Z,3.35
2019-04-22T12:58:49.875Z,4.83
2019-04-22T13:01:21.129Z,5.40
2019-04-22T13:03:52.083Z,5.40
2019-04-22T13:06:21.827Z,4.15
2019-04-22T13:08:52.449Z,5.72
2019-04-22T13:11:28.409Z,4.85
2019-04-22T13:13:54.652Z,5.80
2019-04-22T13:16:25.003Z,18.45
2019-04-22T13:19:00.202Z,5.72
2019-04-22T13:21:26.918Z,7.58
2019-04-22T13:23:57.096Z,11.30
2019-04-22T13:26:27.164Z,11.90
2019-04-22T13:28:57.056Z,7.30
2019-04-22T13:31:26.897Z,9.03
2019-04-22T13:33:59.672Z,10.18
2019-04-22T13:36:29.663Z,8.50
2019-04-22T13:38:59.104Z,13.70
2019-04-22T13:41:33.912Z,10.45
2019-04-22T13:44:00.079Z,14.03
2019-04-22T13:46:31.726Z,7.00
2019-04-22T13:49:37.777Z,14.35
2019-04-22T13:52:02.361Z,10.68
2019-04-22T13:54:49.690Z,11.85
2019-04-22T13:56:55.132Z,5.47
2019-04-22T13:59:15.115Z,12.33
2019-04-22T14:01:46.227Z,15.72
2019-04-22T14:04:22.635Z,8.55
2019-04-22T14:06:52.532Z,8.50
2019-04-22T14:09:22.458Z,7.10
2019-04-22T14:11:58.295Z,13.00
2019-04-22T14:14:25.910Z,6.28
2019-04-22T14:16:55.575Z,7.30
2019-04-22T14:19:26.023Z,6.22
2019-04-22T14:21:55.727Z,7.35
2019-04-22T14:24:26.015Z,5.33
2019-04-22T14:27:13.205Z,5.58
2019-04-22T14:29:26.878Z,5.22
2019-04-22T14:32:06.932Z,6.37
2019-04-22T14:34:28.482Z,7.20
2019-04-22T14:36:59.432Z,6.87
2019-04-22T14:39:30.310Z,5.97
2019-04-22T14:42:19.572Z,6.47
2019-04-22T14:45:44.542Z,4.08
2019-04-22T14:47:26.028Z,4.08
2019-04-22T14:49:53.884Z,4.47
2019-04-22T14:52:27.674Z,6.17
2019-04-22T14:54:49.647Z,9.23
2019-04-22T14:57:07.729Z,4.78
2019-04-22T14:59:37.727Z,5.40
2019-04-22T15:02:09.764Z,6.25
2019-04-22T15:04:42.872Z,5.40
2019-04-22T15:07:12.734Z,5.12
2019-04-22T15:09:43.873Z,5.28
2019-04-22T15:12:20.691Z,4.03
2019-04-22T15:14:45.794Z,4.22
2019-04-22T15:17:38.752Z,4.47
2019-04-22T15:20:43.770Z,5.72
2019-04-22T15:23:14.727Z,3.72
2019-04-22T15:25:44.344Z,5.80
2019-04-22T15:28:15.250Z,4.22
2019-04-22T15:30:45.726Z,3.45
2019-04-22T15:33:15.415Z,6.95
2019-04-22T15:35:45.221Z,3.80
2019-04-22T15:38:15.555Z,4.90
2019-04-22T15:40:46.853Z,4.53
2019-04-22T15:43:17.070Z,5.03
2019-04-22T15:45:46.759Z,6.90
2019-04-22T15:48:16.878Z,5.92
2019-04-22T15:50:46.750Z,5.03
2019-04-22T15:53:17.901Z,4.92
2019-04-22T15:55:47.665Z,7.80
2019-04-22T15:58:17.511Z,4.30
2019-04-22T16:00:58.097Z,6.03
2019-04-22T16:03:18.737Z,4.95
2019-04-22T16:05:48.328Z,4.25
2019-04-22T16:08:19.142Z,4.87
2019-04-22T16:10:48.762Z,6.20
2019-04-22T16:13:24.385Z,7.22
2019-04-22T16:15:52.199Z,6.08
2019-04-22T16:18:22.494Z,5.75
2019-04-22T16:20:52.425Z,4.15
2019-04-22T16:23:36.596Z,5.95
2019-04-22T16:26:38.072Z,5.60
2019-04-22T16:29:09.494Z,4.62
2019-04-22T16:31:39.708Z,5.12
2019-04-22T16:34:11.275Z,6.12
2019-04-22T16:36:40.994Z,5.92
2019-04-22T16:39:13.103Z,5.37
2019-04-22T16:41:42.896Z,4.72
2019-04-22T16:44:14.232Z,4.42
2019-04-22T16:46:43.955Z,5.37
2019-04-22T16:49:13.958Z,10.03
2019-04-22T16:51:43.546Z,4.92
2019-04-22T16:54:13.838Z,4.20
2019-04-22T16:56:43.946Z,4.58
2019-04-22T16:59:14.893Z,3.98
2019-04-22T17:02:04.258Z,5.72
2019-04-22T17:05:11.486Z,5.35
2019-04-22T17:07:42.334Z,3.75
2019-04-22T17:10:13.529Z,4.78
2019-04-22T17:12:53.223Z,5.75
2019-04-22T17:15:16.824Z,3.85
2019-04-22T17:17:47.389Z,4.85
2019-04-22T17:20:17.421Z,4.85
2019-04-22T17:22:47.367Z,5.70
2019-04-22T17:25:18.267Z,5.30
2019-04-22T17:27:48.065Z,6.15
2019-04-22T17:30:18.368Z,4.40
2019-04-22T17:32:48.377Z,5.35
2019-04-22T17:35:20.000Z,5.10
2019-04-22T17:38:00.287Z,4.80
2019-04-22T17:40:38.829Z,4.35
2019-04-22T17:43:26.326Z,4.37
2019-04-22T17:46:01.635Z,4.58
2019-04-22T17:48:50.661Z,4.33
2019-04-22T17:51:29.948Z,4.37
2019-04-22T17:53:55.002Z,5.37
2019-04-22T17:56:28.243Z,4.75
2019-04-22T17:58:56.812Z,9.55
2019-04-22T18:01:25.254Z,5.67
2019-04-22T18:03:42.333Z,8.88
2019-04-22T18:06:18.815Z,9.70
2019-04-22T18:08:56.379Z,5.03
2019-04-22T18:11:33.604Z,5.85
2019-04-22T18:14:13.794Z,5.70
2019-04-22T18:16:33.695Z,7.53
2019-04-22T18:19:04.486Z,5.47
2019-04-22T18:21:30.320Z,8.03
2019-04-22T18:23:56.456Z,5.25
2019-04-22T18:26:30.682Z,5.50
2019-04-22T18:29:07.413Z,5.37
2019-04-22T18:31:31.571Z,6.25
2019-04-22T18:34:06.896Z,7.45
2019-04-22T18:36:37.241Z,5.40
2019-04-22T18:39:20.934Z,3.72
2019-04-22T18:41:44.007Z,4.87
2019-04-22T18:44:16.932Z,7.37
2019-04-22T18:46:50.392Z,7.20
2019-04-22T18:49:15.297Z,5.90
2019-04-22T18:52:01.120Z,6.95
2019-04-22T18:54:42.367Z,7.15
2019-04-22T18:57:12.302Z,7.25
2019-04-22T18:59:32.686Z,4.10
2019-04-22T19:02:01.461Z,4.17
2019-04-22T19:04:40.857Z,5.87
2019-04-22T19:07:28.652Z,4.62
2019-04-22T19:15:00.967Z,5.17
2019-04-22T19:20:13.028Z,4.37
2019-04-22T19:22:37.889Z,5.70
2019-04-22T19:24:57.954Z,4.37
2019-04-22T19:27:31.255Z,10.72
2019-04-22T19:30:04.227Z,7.90
2019-04-22T19:32:40.111Z,10.53
2019-04-22T19:35:03.772Z,24.12
2019-04-22T19:37:39.977Z,22.77
2019-04-22T19:40:34.146Z,22.82
2019-04-22T19:45:10.763Z,17.30
2019-04-22T19:47:53.219Z,23.45
2019-04-22T19:50:16.460Z,22.93
2019-04-22T19:52:43.374Z,22.15
2019-04-22T19:55:19.542Z,21.77
2019-04-22T19:57:52.582Z,20.27
2019-04-22T20:00:35.081Z,16.60
2019-04-22T20:03:49.817Z,19.60
2019-04-22T20:06:34.981Z,14.25
2019-04-22T20:09:05.731Z,12.05
2019-04-22T20:11:41.284Z,14.87
2019-04-22T20:14:12.830Z,13.20
2019-04-22T20:16:37.438Z,13.35
2019-04-22T20:19:19.168Z,11.15
2019-04-22T20:21:50.090Z,13.58
2019-04-22T20:24:04.430Z,14.15
2019-04-22T20:26:49.926Z,14.38
2019-04-22T20:29:21.037Z,12.40
2019-04-22T20:31:49.577Z,20.52
2019-04-22T20:34:38.030Z,19.57
2019-04-22T20:37:08.645Z,10.65
2019-04-22T20:39:28.846Z,8.88
2019-04-22T20:41:49.119Z,19.35
2019-04-22T20:44:32.385Z,12.75
2019-04-22T20:46:57.360Z,9.70
2019-04-22T20:49:31.016Z,9.90
2019-04-22T20:52:24.033Z,8.80
2019-04-22T20:54:28.576Z,11.15
2019-04-22T20:56:55.333Z,12.90
2019-04-22T20:59:33.253Z,12.28
2019-04-22T21:02:02.104Z,8.33
2019-04-22T21:04:26.085Z,10.43
2019-04-22T21:07:02.270Z,7.35
2019-04-22T21:09:38.282Z,7.58
2019-04-22T21:12:04.817Z,8.33
2019-04-22T21:14:41.341Z,8.63
2019-04-22T21:17:25.048Z,12.95
2019-04-22T21:20:00.824Z,9.68
2019-04-22T21:22:26.102Z,15.83
2019-04-22T21:24:53.567Z,21.27
2019-04-22T21:27:28.373Z,19.35
2019-04-22T21:29:52.135Z,17.00
2019-04-22T21:32:29.751Z,14.87
2019-04-22T21:35:07.690Z,12.93
2019-04-22T21:37:37.749Z,12.82
2019-04-22T21:40:00.428Z,8.13
2019-04-22T21:42:38.788Z,11.75
2019-04-22T21:45:05.064Z,13.40
2019-04-22T21:47:48.784Z,14.10
2019-04-22T21:50:31.130Z,10.43
2019-04-22T21:52:40.711Z,8.48
2019-04-22T21:55:16.393Z,6.72
2019-04-22T21:58:19.206Z,8.23
2019-04-22T22:01:14.084Z,8.35
2019-04-22T22:03:40.126Z,12.45
2019-04-22T22:06:02.960Z,6.95
2019-04-22T22:08:49.882Z,16.57
2019-04-22T22:11:13.362Z,7.72
2019-04-22T22:13:48.789Z,5.37
2019-04-22T22:16:13.090Z,9.95
2019-04-22T22:18:50.707Z,10.38
2019-04-22T22:21:33.640Z,13.80
2019-04-22T22:23:56.029Z,11.85
2019-04-22T22:26:15.556Z,11.83
2019-04-22T22:29:01.995Z,14.15
2019-04-22T22:31:31.617Z,11.43
2019-04-22T22:33:54.186Z,12.90
2019-04-22T22:36:23.726Z,11.90
2019-04-22T22:38:55.128Z,9.90
2019-04-22T22:41:07.959Z,10.05
2019-04-22T22:43:42.038Z,13.80
2019-04-22T22:46:18.897Z,10.65
2019-04-22T22:49:05.156Z,10.65
2019-04-22T22:51:39.991Z,7.17
2019-04-22T22:54:07.615Z,11.33
2019-04-22T22:56:42.225Z,12.00
2019-04-22T22:59:02.817Z,12.80
2019-04-22T23:01:39.715Z,11.60
2019-04-22T23:04:15.050Z,15.95
2019-04-22T23:06:45.510Z,12.37
2019-04-22T23:09:10.205Z,8.45
2019-04-22T23:12:02.182Z,14.13
2019-04-22T23:14:14.494Z,17.07
2019-04-22T23:16:33.637Z,9.65
2019-04-22T23:19:06.382Z,15.13
2019-04-22T23:21:43.307Z,14.78
2019-04-22T23:24:43.965Z,12.53
2019-04-22T23:27:19.344Z,9.20
2019-04-22T23:30:04.195Z,10.95
2019-04-22T23:32:35.484Z,12.43
2019-04-22T23:35:19.973Z,11.60
2019-04-22T23:37:50.017Z,10.93
2019-04-22T23:40:39.024Z,12.05
2019-04-22T23:43:00.204Z,8.20
2019-04-22T23:45:34.895Z,14.20
2019-04-22T23:47:49.944Z,11.35
2019-04-22T23:50:31.141Z,10.58
2019-04-22T23:53:04.837Z,9.35
2019-04-22T23:55:39.808Z,17.62
2019-04-22T23:58:07.967Z,14.68
